sensor_id;sensor_type;location;lat;lon;timestamp;pressure;altitude;pressure_sealevel;temperature;humidity
9141;BME280;46330;50.822;7.126;2023-04-28T00:00:00;100659.84;;;12.21;60.48
9141;BME280;46330;50.822;7.126;2023-04-28T00:02:30;100655.53;;;12.18;60.98
9141;BME280;46330;50.822;7.126;2023-04-28T00:04:59;100652.91;;;12.18;61.86
9141;BME280;46330;50.822;7.126;2023-04-28T00:07:28;100646.88;;;12.15;60.86
9141;BME280;46330;50.822;7.126;2023-04-28T00:09:55;100645.19;;;12.12;60.79
9141;BME280;46330;50.822;7.126;2023-04-28T00:12:23;100642.59;;;12.12;61.27
9141;BME280;46330;50.822;7.126;2023-04-28T00:14:53;100626.84;;;12.12;60.59
9141;BME280;46330;50.822;7.126;2023-04-28T00:17:20;100632.16;;;12.11;60.42
9141;BME280;46330;50.822;7.126;2023-04-28T00:19:49;100624.28;;;12.11;59.82
9141;BME280;46330;50.822;7.126;2023-04-28T00:22:17;100623.38;;;12.12;60.44
9141;BME280;46330;50.822;7.126;2023-04-28T00:24:45;100626.91;;;12.11;59.92
9141;BME280;46330;50.822;7.126;2023-04-28T00:27:13;100616.38;;;12.12;59.91
9141;BME280;46330;50.822;7.126;2023-04-28T00:29:40;100622.50;;;12.11;59.89
9141;BME280;46330;50.822;7.126;2023-04-28T00:32:10;100620.78;;;12.10;59.81
9141;BME280;46330;50.822;7.126;2023-04-28T00:34:39;100625.97;;;12.13;59.69
9141;BME280;46330;50.822;7.126;2023-04-28T00:37:06;100621.59;;;12.12;60.14
9141;BME280;46330;50.822;7.126;2023-04-28T00:39:34;100619.84;;;12.13;59.47
9141;BME280;46330;50.822;7.126;2023-04-28T00:42:03;100611.19;;;12.11;60.40
9141;BME280;46330;50.822;7.126;2023-04-28T00:44:30;100606.81;;;12.10;59.91
9141;BME280;46330;50.822;7.126;2023-04-28T00:46:58;100599.03;;;12.07;59.75
9141;BME280;46330;50.822;7.126;2023-04-28T00:49:28;100599.03;;;12.07;61.76
9141;BME280;46330;50.822;7.126;2023-04-28T00:51:57;100593.81;;;12.05;62.18
9141;BME280;46330;50.822;7.126;2023-04-28T00:54:29;100584.28;;;12.03;63.87
9141;BME280;46330;50.822;7.126;2023-04-28T00:56:57;100587.06;;;11.97;63.18
9141;BME280;46330;50.822;7.126;2023-04-28T00:59:25;100584.53;;;11.94;63.85
9141;BME280;46330;50.822;7.126;2023-04-28T01:01:53;100578.31;;;11.98;63.23
9141;BME280;46330;50.822;7.126;2023-04-28T01:04:22;100573.09;;;11.96;62.26
9141;BME280;46330;50.822;7.126;2023-04-28T01:06:52;100579.25;;;11.95;62.32
9141;BME280;46330;50.822;7.126;2023-04-28T01:09:22;100567.13;;;11.91;62.16
9141;BME280;46330;50.822;7.126;2023-04-28T01:11:51;100573.16;;;11.93;61.90
9141;BME280;46330;50.822;7.126;2023-04-28T01:14:39;100564.41;;;11.94;62.32
9141;BME280;46330;50.822;7.126;2023-04-28T01:17:07;100569.59;;;11.96;62.43
9141;BME280;46330;50.822;7.126;2023-04-28T01:19:36;100562.81;;;11.89;62.29
9141;BME280;46330;50.822;7.126;2023-04-28T01:22:05;100560.84;;;11.97;61.55
9141;BME280;46330;50.822;7.126;2023-04-28T01:24:34;100568.78;;;11.95;61.09
9141;BME280;46330;50.822;7.126;2023-04-28T01:27:05;100574.75;;;11.99;62.17
9141;BME280;46330;50.822;7.126;2023-04-28T01:29:33;100574.84;;;11.96;63.78
9141;BME280;46330;50.822;7.126;2023-04-28T01:32:01;100570.53;;;11.93;65.79
9141;BME280;46330;50.822;7.126;2023-04-28T01:34:29;100574.34;;;11.81;66.71
9141;BME280;46330;50.822;7.126;2023-04-28T01:36:57;100568.38;;;11.76;66.44
9141;BME280;46330;50.822;7.126;2023-04-28T01:39:25;100571.03;;;11.75;67.90
9141;BME280;46330;50.822;7.126;2023-04-28T01:41:54;100563.16;;;11.75;68.70
9141;BME280;46330;50.822;7.126;2023-04-28T01:44:22;100549.28;;;11.71;68.44
9141;BME280;46330;50.822;7.126;2023-04-28T01:46:50;100563.28;;;11.70;68.19
9141;BME280;46330;50.822;7.126;2023-04-28T01:49:20;100565.03;;;11.70;67.85
9141;BME280;46330;50.822;7.126;2023-04-28T01:51:48;100562.56;;;11.62;69.12
9141;BME280;46330;50.822;7.126;2023-04-28T01:54:16;100562.69;;;11.58;69.00
9141;BME280;46330;50.822;7.126;2023-04-28T01:56:44;100560.00;;;11.61;68.83
9141;BME280;46330;50.822;7.126;2023-04-28T01:59:16;100562.81;;;11.53;68.32
9141;BME280;46330;50.822;7.126;2023-04-28T02:01:44;100561.00;;;11.55;69.53
9141;BME280;46330;50.822;7.126;2023-04-28T02:04:12;100551.50;;;11.51;69.89
9141;BME280;46330;50.822;7.126;2023-04-28T02:06:40;100549.78;;;11.50;69.98
9141;BME280;46330;50.822;7.126;2023-04-28T02:09:08;100555.09;;;11.47;71.07
9141;BME280;46330;50.822;7.126;2023-04-28T02:11:36;100558.59;;;11.46;70.22
9141;BME280;46330;50.822;7.126;2023-04-28T02:14:04;100563.97;;;11.42;71.26
9141;BME280;46330;50.822;7.126;2023-04-28T02:16:33;100564.91;;;11.39;71.98
9141;BME280;46330;50.822;7.126;2023-04-28T02:19:01;100559.75;;;11.36;72.84
9141;BME280;46330;50.822;7.126;2023-04-28T02:21:29;100558.91;;;11.34;72.76
9141;BME280;46330;50.822;7.126;2023-04-28T02:23:57;100549.34;;;11.33;73.90
9141;BME280;46330;50.822;7.126;2023-04-28T02:26:25;100547.59;;;11.32;73.96
9141;BME280;46330;50.822;7.126;2023-04-28T02:28:53;100545.81;;;11.34;74.28
9141;BME280;46330;50.822;7.126;2023-04-28T02:31:21;100541.47;;;11.33;74.94
9141;BME280;46330;50.822;7.126;2023-04-28T02:33:50;100544.25;;;11.27;74.76
9141;BME280;46330;50.822;7.126;2023-04-28T02:36:18;100557.28;;;11.28;75.24
9141;BME280;46330;50.822;7.126;2023-04-28T02:38:46;100551.38;;;11.20;74.41
9141;BME280;46330;50.822;7.126;2023-04-28T02:41:14;100545.22;;;11.21;75.25
9141;BME280;46330;50.822;7.126;2023-04-28T02:43:42;100539.31;;;11.13;74.87
9141;BME280;46330;50.822;7.126;2023-04-28T02:46:10;100541.94;;;11.13;74.02
9141;BME280;46330;50.822;7.126;2023-04-28T02:48:38;100538.47;;;11.13;74.13
9141;BME280;46330;50.822;7.126;2023-04-28T02:51:08;100543.53;;;11.19;74.78
9141;BME280;46330;50.822;7.126;2023-04-28T02:53:36;100549.75;;;11.15;74.88
9141;BME280;46330;50.822;7.126;2023-04-28T02:56:04;100541.06;;;11.13;74.70
9141;BME280;46330;50.822;7.126;2023-04-28T02:58:32;100544.50;;;11.15;75.10
9141;BME280;46330;50.822;7.126;2023-04-28T03:01:00;100536.78;;;11.09;74.60
9141;BME280;46330;50.822;7.126;2023-04-28T03:03:28;100534.22;;;11.07;74.55
9141;BME280;46330;50.822;7.126;2023-04-28T03:05:57;100534.22;;;11.07;75.37
9141;BME280;46330;50.822;7.126;2023-04-28T03:08:26;100529.00;;;11.07;74.58
9141;BME280;46330;50.822;7.126;2023-04-28T03:10:54;100520.34;;;11.04;74.89
9141;BME280;46330;50.822;7.126;2023-04-28T03:13:22;100519.53;;;11.02;75.61
9141;BME280;46330;50.822;7.126;2023-04-28T03:15:51;100517.81;;;11.01;74.86
9141;BME280;46330;50.822;7.126;2023-04-28T03:18:19;100525.53;;;11.05;74.83
9141;BME280;46330;50.822;7.126;2023-04-28T03:20:48;100527.34;;;11.03;74.83
9141;BME280;46330;50.822;7.126;2023-04-28T03:23:16;100520.28;;;11.05;75.69
9141;BME280;46330;50.822;7.126;2023-04-28T03:25:45;100512.59;;;10.99;75.55
9141;BME280;46330;50.822;7.126;2023-04-28T03:28:13;100509.97;;;10.99;75.29
9141;BME280;46330;50.822;7.126;2023-04-28T03:30:41;100516.06;;;11.00;76.15
9141;BME280;46330;50.822;7.126;2023-04-28T03:33:09;100511.78;;;10.97;75.78
9141;BME280;46330;50.822;7.126;2023-04-28T03:35:37;100506.59;;;10.96;78.09
9141;BME280;46330;50.822;7.126;2023-04-28T03:38:05;100510.19;;;10.90;78.67
9141;BME280;46330;50.822;7.126;2023-04-28T03:40:34;100505.16;;;10.81;81.54
9141;BME280;46330;50.822;7.126;2023-04-28T03:43:22;100502.59;;;10.79;82.54
9141;BME280;46330;50.822;7.126;2023-04-28T03:46:12;100493.25;;;10.68;83.22
9141;BME280;46330;50.822;7.126;2023-04-28T03:48:40;100479.56;;;10.57;84.22
9141;BME280;46330;50.822;7.126;2023-04-28T03:51:09;100477.13;;;10.48;86.76
9141;BME280;46330;50.822;7.126;2023-04-28T03:53:37;100475.59;;;10.38;87.16
9141;BME280;46330;50.822;7.126;2023-04-28T03:56:05;100477.47;;;10.31;88.69
9141;BME280;46330;50.822;7.126;2023-04-28T03:58:35;100481.03;;;10.29;89.34
9141;BME280;46330;50.822;7.126;2023-04-28T04:01:03;100482.09;;;10.20;90.34
9141;BME280;46330;50.822;7.126;2023-04-28T04:03:31;100456.97;;;10.11;90.86
9141;BME280;46330;50.822;7.126;2023-04-28T04:05:59;100457.97;;;10.04;91.13
9141;BME280;46330;50.822;7.126;2023-04-28T04:08:27;100448.44;;;10.02;92.09
9141;BME280;46330;50.822;7.126;2023-04-28T04:10:55;100456.41;;;9.96;92.83
9141;BME280;46330;50.822;7.126;2023-04-28T04:13:23;100448.66;;;9.91;94.67
9141;BME280;46330;50.822;7.126;2023-04-28T04:15:52;100443.56;;;9.85;94.27
9141;BME280;46330;50.822;7.126;2023-04-28T04:18:23;100429.53;;;9.89;94.89
9141;BME280;46330;50.822;7.126;2023-04-28T04:21:11;100427.94;;;9.82;95.04
9141;BME280;46330;50.822;7.126;2023-04-28T04:23:39;100424.56;;;9.77;96.32
9141;BME280;46330;50.822;7.126;2023-04-28T04:26:07;100426.38;;;9.72;96.28
9141;BME280;46330;50.822;7.126;2023-04-28T04:28:35;100423.69;;;9.77;96.92
9141;BME280;46330;50.822;7.126;2023-04-28T04:31:07;100419.34;;;9.77;97.30
9141;BME280;46330;50.822;7.126;2023-04-28T04:33:35;100414.25;;;9.71;97.74
9141;BME280;46330;50.822;7.126;2023-04-28T04:36:06;100409.78;;;9.74;98.34
9141;BME280;46330;50.822;7.126;2023-04-28T04:38:34;100417.56;;;9.78;98.20
9141;BME280;46330;50.822;7.126;2023-04-28T04:41:14;100422.75;;;9.81;97.87
9141;BME280;46330;50.822;7.126;2023-04-28T04:43:43;100436.63;;;9.83;98.12
9141;BME280;46330;50.822;7.126;2023-04-28T04:46:12;100441.75;;;9.87;97.63
9141;BME280;46330;50.822;7.126;2023-04-28T04:48:41;100444.44;;;9.84;97.46
9141;BME280;46330;50.822;7.126;2023-04-28T04:51:09;100432.16;;;9.88;97.65
9141;BME280;46330;50.822;7.126;2023-04-28T04:53:37;100423.47;;;9.87;97.73
9141;BME280;46330;50.822;7.126;2023-04-28T04:56:06;100440.00;;;9.89;97.68
9141;BME280;46330;50.822;7.126;2023-04-28T04:58:35;100446.03;;;9.93;97.70
9141;BME280;46330;50.822;7.126;2023-04-28T05:01:25;100455.69;;;9.88;97.45
9141;BME280;46330;50.822;7.126;2023-04-28T05:03:53;100461.75;;;9.90;97.62
9141;BME280;46330;50.822;7.126;2023-04-28T05:06:22;100466.00;;;9.95;98.21
9141;BME280;46330;50.822;7.126;2023-04-28T05:08:49;100466.81;;;9.99;98.33
9141;BME280;46330;50.822;7.126;2023-04-28T05:11:18;100465.19;;;9.92;97.70
9141;BME280;46330;50.822;7.126;2023-04-28T05:13:46;100462.59;;;9.92;98.16
9141;BME280;46330;50.822;7.126;2023-04-28T05:16:14;100457.41;;;9.89;98.03
9141;BME280;46330;50.822;7.126;2023-04-28T05:18:58;100464.31;;;9.91;99.40
9141;BME280;46330;50.822;7.126;2023-04-28T05:21:26;100457.41;;;9.89;100.00
9141;BME280;46330;50.822;7.126;2023-04-28T05:23:55;100453.88;;;9.91;100.00
9141;BME280;46330;50.822;7.126;2023-04-28T05:26:23;100452.25;;;9.86;100.00
9141;BME280;46330;50.822;7.126;2023-04-28T05:28:55;100463.47;;;9.91;100.00
9141;BME280;46330;50.822;7.126;2023-04-28T05:31:24;100454.13;;;9.79;100.00
9141;BME280;46330;50.822;7.126;2023-04-28T05:33:53;100458.53;;;9.76;100.00
9141;BME280;46330;50.822;7.126;2023-04-28T05:36:22;100457.56;;;9.81;100.00
9141;BME280;46330;50.822;7.126;2023-04-28T05:38:50;100461.03;;;9.82;100.00
9141;BME280;46330;50.822;7.126;2023-04-28T05:41:19;100454.28;;;9.70;100.00
9141;BME280;46330;50.822;7.126;2023-04-28T05:43:46;100447.28;;;9.72;100.00
9141;BME280;46330;50.822;7.126;2023-04-28T05:46:17;100451.03;;;9.57;100.00
9141;BME280;46330;50.822;7.126;2023-04-28T05:48:57;100436.19;;;9.61;100.00
9141;BME280;46330;50.822;7.126;2023-04-28T05:51:31;100443.97;;;9.64;100.00
9141;BME280;46330;50.822;7.126;2023-04-28T05:54:00;100434.31;;;9.67;100.00
9141;BME280;46330;50.822;7.126;2023-04-28T05:56:29;100439.56;;;9.67;100.00
9141;BME280;46330;50.822;7.126;2023-04-28T05:58:59;100436.06;;;9.67;100.00
9141;BME280;46330;50.822;7.126;2023-04-28T06:01:29;100433.28;;;9.74;100.00
9141;BME280;46330;50.822;7.126;2023-04-28T06:03:57;100432.41;;;9.76;100.00
9141;BME280;46330;50.822;7.126;2023-04-28T06:06:26;100427.81;;;9.88;100.00
9141;BME280;46330;50.822;7.126;2023-04-28T06:08:56;100415.69;;;9.86;100.00
9141;BME280;46330;50.822;7.126;2023-04-28T06:11:24;100423.47;;;9.89;100.00
9141;BME280;46330;50.822;7.126;2023-04-28T06:13:52;100420.91;;;9.84;100.00
9141;BME280;46330;50.822;7.126;2023-04-28T06:16:20;100425.31;;;9.84;100.00
9141;BME280;46330;50.822;7.126;2023-04-28T06:18:49;100419.16;;;9.86;100.00
9141;BME280;46330;50.822;7.126;2023-04-28T06:21:18;100405.84;;;9.97;100.00
9141;BME280;46330;50.822;7.126;2023-04-28T06:23:47;100407.44;;;10.05;100.00
9141;BME280;46330;50.822;7.126;2023-04-28T06:26:16;100412.69;;;10.04;100.00
9141;BME280;46330;50.822;7.126;2023-04-28T06:28:44;100402.00;;;10.16;100.00
9141;BME280;46330;50.822;7.126;2023-04-28T06:31:12;100413.31;;;10.18;100.00
9141;BME280;46330;50.822;7.126;2023-04-28T06:33:40;100410.78;;;10.13;100.00
9141;BME280;46330;50.822;7.126;2023-04-28T06:36:08;100413.41;;;10.13;100.00
9141;BME280;46330;50.822;7.126;2023-04-28T06:38:39;100423.00;;;10.10;100.00
9141;BME280;46330;50.822;7.126;2023-04-28T06:41:08;100432.56;;;10.14;100.00
9141;BME280;46330;50.822;7.126;2023-04-28T06:43:38;100427.31;;;10.12;100.00
9141;BME280;46330;50.822;7.126;2023-04-28T06:46:09;100421.97;;;10.18;100.00
9141;BME280;46330;50.822;7.126;2023-04-28T06:48:38;100414.13;;;10.20;100.00
9141;BME280;46330;50.822;7.126;2023-04-28T06:51:06;100419.97;;;10.31;100.00
9141;BME280;46330;50.822;7.126;2023-04-28T06:53:34;100421.69;;;10.34;100.00
9141;BME280;46330;50.822;7.126;2023-04-28T06:56:06;100417.72;;;10.54;100.00
9141;BME280;46330;50.822;7.126;2023-04-28T06:58:38;100428.06;;;10.59;100.00
9141;BME280;46330;50.822;7.126;2023-04-28T07:01:07;100424.28;;;10.72;100.00
9141;BME280;46330;50.822;7.126;2023-04-28T07:03:35;100434.38;;;10.87;100.00
9141;BME280;46330;50.822;7.126;2023-04-28T07:06:04;100426.38;;;10.93;100.00
9141;BME280;46330;50.822;7.126;2023-04-28T07:08:32;100433.16;;;11.02;100.00
9141;BME280;46330;50.822;7.126;2023-04-28T07:11:01;100445.41;;;11.00;100.00
9141;BME280;46330;50.822;7.126;2023-04-28T07:13:30;100438.50;;;10.97;100.00
9141;BME280;46330;50.822;7.126;2023-04-28T07:15:59;100426.69;;;11.16;100.00
9141;BME280;46330;50.822;7.126;2023-04-28T07:18:27;100434.22;;;11.30;99.57
9141;BME280;46330;50.822;7.126;2023-04-28T07:20:55;100425.81;;;11.50;97.94
9141;BME280;46330;50.822;7.126;2023-04-28T07:23:23;100429.19;;;11.55;97.47
9141;BME280;46330;50.822;7.126;2023-04-28T07:25:51;100431.47;;;11.67;95.80
9141;BME280;46330;50.822;7.126;2023-04-28T07:28:19;100442.59;;;11.76;94.81
9141;BME280;46330;50.822;7.126;2023-04-28T07:30:47;100442.50;;;12.10;94.82
9141;BME280;46330;50.822;7.126;2023-04-28T07:33:16;100440.94;;;12.05;94.14
9141;BME280;46330;50.822;7.126;2023-04-28T07:35:44;100439.47;;;11.95;94.57
9141;BME280;46330;50.822;7.126;2023-04-28T07:38:12;100419.72;;;12.12;95.40
9141;BME280;46330;50.822;7.126;2023-04-28T07:40:41;100436.22;;;12.16;94.85
9141;BME280;46330;50.822;7.126;2023-04-28T07:43:09;100442.44;;;12.12;94.55
9141;BME280;46330;50.822;7.126;2023-04-28T07:45:37;100431.50;;;11.98;94.87
9141;BME280;46330;50.822;7.126;2023-04-28T07:48:05;100420.16;;;11.97;95.50
9141;BME280;46330;50.822;7.126;2023-04-28T07:50:35;100428.72;;;12.33;94.31
9141;BME280;46330;50.822;7.126;2023-04-28T07:53:03;100435.66;;;12.35;93.49
9141;BME280;46330;50.822;7.126;2023-04-28T07:55:31;100431.22;;;12.37;94.01
9141;BME280;46330;50.822;7.126;2023-04-28T07:57:59;100443.28;;;12.43;93.13
9141;BME280;46330;50.822;7.126;2023-04-28T08:00:27;100436.19;;;12.47;92.70
9141;BME280;46330;50.822;7.126;2023-04-28T08:02:55;100438.59;;;12.54;93.65
9141;BME280;46330;50.822;7.126;2023-04-28T08:05:23;100439.00;;;12.68;92.35
9141;BME280;46330;50.822;7.126;2023-04-28T08:07:53;100439.44;;;12.82;92.33
9141;BME280;46330;50.822;7.126;2023-04-28T08:10:21;100444.59;;;12.85;91.42
9141;BME280;46330;50.822;7.126;2023-04-28T08:12:49;100440.44;;;12.78;92.05
9141;BME280;46330;50.822;7.126;2023-04-28T08:15:17;100445.97;;;12.97;91.35
9141;BME280;46330;50.822;7.126;2023-04-28T08:17:45;100441.19;;;13.36;90.00
9141;BME280;46330;50.822;7.126;2023-04-28T08:20:13;100427.72;;;13.45;88.41
9141;BME280;46330;50.822;7.126;2023-04-28T08:22:47;100409.97;;;13.76;86.38
9141;BME280;46330;50.822;7.126;2023-04-28T08:25:16;100420.81;;;15.05;82.60
9141;BME280;46330;50.822;7.126;2023-04-28T08:27:44;100426.38;;;15.39;77.81
9141;BME280;46330;50.822;7.126;2023-04-28T08:30:12;100428.03;;;15.42;79.61
9141;BME280;46330;50.822;7.126;2023-04-28T08:32:40;100430.56;;;15.23;77.77
9141;BME280;46330;50.822;7.126;2023-04-28T08:35:08;100431.41;;;15.03;79.31
9141;BME280;46330;50.822;7.126;2023-04-28T08:37:36;100436.13;;;14.95;80.13
9141;BME280;46330;50.822;7.126;2023-04-28T08:40:06;100434.34;;;14.74;81.53
9141;BME280;46330;50.822;7.126;2023-04-28T08:42:37;100438.25;;;14.86;82.19
9141;BME280;46330;50.822;7.126;2023-04-28T08:45:06;100434.72;;;15.08;80.24
9141;BME280;46330;50.822;7.126;2023-04-28T08:47:35;100431.19;;;14.88;81.58
9141;BME280;46330;50.822;7.126;2023-04-28T08:50:05;100431.97;;;14.68;83.01
9141;BME280;46330;50.822;7.126;2023-04-28T08:52:34;100432.34;;;14.81;83.49
9141;BME280;46330;50.822;7.126;2023-04-28T08:55:05;100430.47;;;15.04;83.24
9141;BME280;46330;50.822;7.126;2023-04-28T08:57:38;100433.94;;;14.63;84.37
9141;BME280;46330;50.822;7.126;2023-04-28T09:00:10;100434.72;;;14.19;86.38
9141;BME280;46330;50.822;7.126;2023-04-28T09:02:38;100440.72;;;14.22;87.61
9141;BME280;46330;50.822;7.126;2023-04-28T09:05:08;100442.13;;;14.08;89.43
9141;BME280;46330;50.822;7.126;2023-04-28T09:07:37;100448.50;;;14.25;88.72
9141;BME280;46330;50.822;7.126;2023-04-28T09:10:19;100446.91;;;14.21;88.81
9141;BME280;46330;50.822;7.126;2023-04-28T09:12:50;100444.91;;;14.28;91.42
9141;BME280;46330;50.822;7.126;2023-04-28T09:15:26;100438.34;;;14.16;93.52
9141;BME280;46330;50.822;7.126;2023-04-28T09:17:58;100438.25;;;13.94;94.90
9141;BME280;46330;50.822;7.126;2023-04-28T09:20:27;100430.91;;;13.79;97.02
9141;BME280;46330;50.822;7.126;2023-04-28T09:22:56;100432.81;;;13.76;99.02
9141;BME280;46330;50.822;7.126;2023-04-28T09:25:38;100428.97;;;13.84;99.96
9141;BME280;46330;50.822;7.126;2023-04-28T09:28:19;100429.56;;;13.92;100.00
9141;BME280;46330;50.822;7.126;2023-04-28T09:30:48;100429.09;;;13.81;100.00
9141;BME280;46330;50.822;7.126;2023-04-28T09:33:16;100423.72;;;13.84;100.00
9141;BME280;46330;50.822;7.126;2023-04-28T09:35:44;100425.50;;;13.84;100.00
9141;BME280;46330;50.822;7.126;2023-04-28T09:38:13;100422.41;;;13.96;100.00
9141;BME280;46330;50.822;7.126;2023-04-28T09:40:52;100421.00;;;13.63;100.00
9141;BME280;46330;50.822;7.126;2023-04-28T09:43:27;100426.50;;;13.80;100.00
9141;BME280;46330;50.822;7.126;2023-04-28T09:45:56;100419.16;;;13.89;100.00
9141;BME280;46330;50.822;7.126;2023-04-28T09:48:32;100411.00;;;13.97;100.00
9141;BME280;46330;50.822;7.126;2023-04-28T09:51:01;100413.84;;;13.91;100.00
9141;BME280;46330;50.822;7.126;2023-04-28T09:53:29;100419.25;;;13.86;100.00
9141;BME280;46330;50.822;7.126;2023-04-28T09:55:58;100416.69;;;14.08;100.00
9141;BME280;46330;50.822;7.126;2023-04-28T09:58:29;100424.22;;;14.19;100.00
9141;BME280;46330;50.822;7.126;2023-04-28T10:00:59;100430.06;;;14.02;100.00
9141;BME280;46330;50.822;7.126;2023-04-28T10:03:29;100422.81;;;14.09;100.00
9141;BME280;46330;50.822;7.126;2023-04-28T10:05:58;100414.00;;;14.34;100.00
9141;BME280;46330;50.822;7.126;2023-04-28T10:08:26;100413.91;;;14.36;100.00
9141;BME280;46330;50.822;7.126;2023-04-28T10:10:55;100414.63;;;14.41;100.00
9141;BME280;46330;50.822;7.126;2023-04-28T10:13:23;100414.63;;;14.41;100.00
9141;BME280;46330;50.822;7.126;2023-04-28T10:15:53;100412.44;;;14.29;100.00
9141;BME280;46330;50.822;7.126;2023-04-28T10:18:24;100409.16;;;14.22;100.00
9141;BME280;46330;50.822;7.126;2023-04-28T10:20:55;100416.28;;;14.43;100.00
9141;BME280;46330;50.822;7.126;2023-04-28T10:23:55;100413.53;;;14.46;100.00
9141;BME280;46330;50.822;7.126;2023-04-28T10:26:52;100415.72;;;14.57;100.00
9141;BME280;46330;50.822;7.126;2023-04-28T10:29:24;100412.91;;;14.62;100.00
9141;BME280;46330;50.822;7.126;2023-04-28T10:32:18;100416.28;;;14.65;100.00
9141;BME280;46330;50.822;7.126;2023-04-28T10:34:46;100414.56;;;14.86;100.00
9141;BME280;46330;50.822;7.126;2023-04-28T10:37:15;100416.78;;;14.96;100.00
9141;BME280;46330;50.822;7.126;2023-04-28T10:42:53;100417.25;;;15.06;100.00
9141;BME280;46330;50.822;7.126;2023-04-28T10:51:34;100411.22;;;15.24;100.00
9141;BME280;46330;50.822;7.126;2023-04-28T10:54:22;100399.94;;;15.21;100.00
9141;BME280;46330;50.822;7.126;2023-04-28T10:57:18;100409.09;;;15.32;100.00
9141;BME280;46330;50.822;7.126;2023-04-28T10:59:47;100404.31;;;15.22;100.00
9141;BME280;46330;50.822;7.126;2023-04-28T11:02:41;100396.59;;;15.17;100.00
9141;BME280;46330;50.822;7.126;2023-04-28T11:05:15;100396.00;;;15.31;100.00
9141;BME280;46330;50.822;7.126;2023-04-28T11:14:31;100398.91;;;15.25;100.00
9141;BME280;46330;50.822;7.126;2023-04-28T11:17:00;100395.41;;;15.44;100.00
9141;BME280;46330;50.822;7.126;2023-04-28T11:19:30;100394.50;;;15.45;100.00
9141;BME280;46330;50.822;7.126;2023-04-28T11:22:00;100386.13;;;15.36;100.00
9141;BME280;46330;50.822;7.126;2023-04-28T11:24:29;100384.16;;;15.41;100.00
9141;BME280;46330;50.822;7.126;2023-04-28T11:26:58;100387.41;;;15.68;100.00
9141;BME280;46330;50.822;7.126;2023-04-28T11:29:33;100385.78;;;15.84;100.00
9141;BME280;46330;50.822;7.126;2023-04-28T11:32:02;100379.75;;;16.00;100.00
9141;BME280;46330;50.822;7.126;2023-04-28T11:34:30;100383.53;;;16.13;100.00
9141;BME280;46330;50.822;7.126;2023-04-28T11:36:58;100380.31;;;16.26;100.00
9141;BME280;46330;50.822;7.126;2023-04-28T11:39:28;100379.34;;;16.65;99.78
9141;BME280;46330;50.822;7.126;2023-04-28T11:41:56;100375.97;;;16.98;97.20
9141;BME280;46330;50.822;7.126;2023-04-28T11:44:27;100371.06;;;17.42;95.66
9141;BME280;46330;50.822;7.126;2023-04-28T11:46:57;100361.31;;;18.72;86.63
9141;BME280;46330;50.822;7.126;2023-04-28T11:49:30;100361.06;;;19.80;77.07
9141;BME280;46330;50.822;7.126;2023-04-28T11:52:03;100370.16;;;20.73;77.84
9141;BME280;46330;50.822;7.126;2023-04-28T11:54:31;100367.81;;;21.60;72.60
9141;BME280;46330;50.822;7.126;2023-04-28T11:56:59;100371.31;;;22.24;69.59
9141;BME280;46330;50.822;7.126;2023-04-28T11:59:31;100364.97;;;22.01;70.29
9141;BME280;46330;50.822;7.126;2023-04-28T12:02:03;100365.72;;;22.03;67.45
9141;BME280;46330;50.822;7.126;2023-04-28T12:04:34;100374.69;;;22.98;64.55
9141;BME280;46330;50.822;7.126;2023-04-28T12:07:04;100356.09;;;23.21;62.96
9141;BME280;46330;50.822;7.126;2023-04-28T12:09:33;100366.75;;;22.49;65.69
9141;BME280;46330;50.822;7.126;2023-04-28T12:12:03;100368.34;;;22.52;66.25
9141;BME280;46330;50.822;7.126;2023-04-28T12:14:52;100349.81;;;23.57;60.51
9141;BME280;46330;50.822;7.126;2023-04-28T12:17:25;100338.88;;;23.71;61.18
9141;BME280;46330;50.822;7.126;2023-04-28T12:19:53;100343.75;;;23.99;57.79
9141;BME280;46330;50.822;7.126;2023-04-28T12:22:22;100345.84;;;24.72;56.60
9141;BME280;46330;50.822;7.126;2023-04-28T12:25:02;100345.56;;;25.18;55.36
9141;BME280;46330;50.822;7.126;2023-04-28T12:27:30;100342.66;;;24.78;59.18
9141;BME280;46330;50.822;7.126;2023-04-28T12:29:58;100334.94;;;25.27;54.64
9141;BME280;46330;50.822;7.126;2023-04-28T12:32:38;100339.09;;;25.20;54.21
9141;BME280;46330;50.822;7.126;2023-04-28T12:35:07;100326.78;;;25.49;55.19
9141;BME280;46330;50.822;7.126;2023-04-28T12:37:36;100337.00;;;25.03;52.75
9141;BME280;46330;50.822;7.126;2023-04-28T12:40:05;100335.31;;;24.59;54.22
9141;BME280;46330;50.822;7.126;2023-04-28T12:42:33;100328.44;;;24.77;55.93
9141;BME280;46330;50.822;7.126;2023-04-28T12:45:02;100337.44;;;24.00;58.18
9141;BME280;46330;50.822;7.126;2023-04-28T12:47:30;100328.53;;;23.44;58.86
9141;BME280;46330;50.822;7.126;2023-04-28T12:49:59;100328.25;;;24.58;55.57
9141;BME280;46330;50.822;7.126;2023-04-28T12:52:27;100323.75;;;24.58;54.08
9141;BME280;46330;50.822;7.126;2023-04-28T12:54:55;100317.84;;;25.28;55.11
9141;BME280;46330;50.822;7.126;2023-04-28T12:57:23;100313.69;;;25.35;51.92
9141;BME280;46330;50.822;7.126;2023-04-28T12:59:51;100319.09;;;24.72;53.60
9141;BME280;46330;50.822;7.126;2023-04-28T13:02:19;100307.28;;;25.47;50.68
9141;BME280;46330;50.822;7.126;2023-04-28T13:04:48;100311.31;;;25.53;52.49
9141;BME280;46330;50.822;7.126;2023-04-28T13:07:19;100316.44;;;25.24;51.05
9141;BME280;46330;50.822;7.126;2023-04-28T13:09:47;100318.59;;;24.01;54.63
9141;BME280;46330;50.822;7.126;2023-04-28T13:12:15;100312.75;;;24.30;56.11
9141;BME280;46330;50.822;7.126;2023-04-28T13:14:43;100307.72;;;24.47;56.03
9141;BME280;46330;50.822;7.126;2023-04-28T13:17:11;100310.84;;;24.21;53.66
9141;BME280;46330;50.822;7.126;2023-04-28T13:19:39;100297.13;;;24.57;54.55
9141;BME280;46330;50.822;7.126;2023-04-28T13:22:06;100296.16;;;24.58;54.55
9141;BME280;46330;50.822;7.126;2023-04-28T13:24:36;100287.16;;;24.59;53.10
9141;BME280;46330;50.822;7.126;2023-04-28T13:27:04;100284.31;;;24.72;53.19
9141;BME280;46330;50.822;7.126;2023-04-28T13:29:35;100275.81;;;24.67;54.88